Time;durP1;ratioP1;P1;durP2;ratioP2;P2;SDS_P1;SDS_P2;PMS_P1;PMS_P2;Temp;Humidity;BMP_temperature;BMP_pressure;BME280_temperature;BME280_humidity;BME280_pressure;Samples;Min_cycle;Max_cycle;Signal;HPM_P1;HPM_P2
2021/10/14 00:01:48;;;;;;;16.90;6.00;;;;;;;10.06;84.12;102373.19;5008626;28;20038;-74
2021/10/14 00:04:14;;;;;;;17.17;4.90;;;;;;;10.00;84.66;102378.81;5007318;28;20505;-74
2021/10/14 00:06:40;;;;;;;12.05;5.28;;;;;;;9.96;84.67;102373.03;5028006;28;20061;-73
2021/10/14 00:09:05;;;;;;;28.35;6.25;;;;;;;9.98;84.23;102371.13;5008675;28;20761;-73
2021/10/14 00:11:31;;;;;;;16.77;4.75;;;;;;;9.98;83.48;102370.31;5005867;28;20038;-73
2021/10/14 00:13:56;;;;;;;9.32;4.00;;;;;;;10.05;83.01;102369.75;5002917;28;20037;-74
2021/10/14 00:16:22;;;;;;;13.00;4.47;;;;;;;10.04;83.28;102362.94;5007859;28;20041;-73
2021/10/14 00:18:47;;;;;;;11.60;4.38;;;;;;;10.00;82.82;102360.66;5011446;28;20029;-74
2021/10/14 00:21:12;;;;;;;12.82;4.05;;;;;;;9.94;83.01;102365.38;5007155;28;20391;-74
2021/10/14 00:23:38;;;;;;;13.95;4.35;;;;;;;9.98;82.85;102365.94;5000829;28;20079;-73
2021/10/14 00:26:05;;;;;;;11.02;4.40;;;;;;;9.98;82.29;102358.19;5013682;28;20039;-73
2021/10/14 00:28:30;;;;;;;12.90;4.90;;;;;;;10.06;81.87;102360.22;4992857;28;20026;-74
2021/10/14 00:30:55;;;;;;;13.75;4.50;;;;;;;9.99;82.06;102369.41;4989536;28;20030;-74
2021/10/14 00:33:21;;;;;;;8.50;3.80;;;;;;;10.06;82.06;102360.22;5000610;28;20041;-74
2021/10/14 00:35:46;;;;;;;12.38;4.03;;;;;;;9.98;82.35;102365.94;4986516;28;20405;-73
2021/10/14 00:38:12;;;;;;;12.93;4.40;;;;;;;9.97;82.20;102377.28;5000793;28;20360;-73
2021/10/14 00:40:37;;;;;;;13.38;4.50;;;;;;;9.96;81.78;102373.03;5005998;28;20403;-74
2021/10/14 00:43:03;;;;;;;11.05;4.03;;;;;;;9.92;82.36;102372.41;5003921;28;20091;-75
2021/10/14 00:45:29;;;;;;;15.23;4.10;;;;;;;10.05;82.15;102371.53;5005576;28;20037;-75
2021/10/14 00:47:55;;;;;;;13.65;4.10;;;;;;;10.06;81.83;102362.81;5011077;28;20033;-76
2021/10/14 00:50:20;;;;;;;15.75;4.63;;;;;;;10.14;81.22;102363.88;5006836;28;20030;-74
2021/10/14 00:52:46;;;;;;;9.00;3.80;;;;;;;10.04;81.01;102359.50;5010324;28;20141;-74
2021/10/14 00:55:12;;;;;;;12.38;3.92;;;;;;;9.90;82.38;102363.94;5005925;28;20164;-75
2021/10/14 00:57:38;;;;;;;16.08;3.95;;;;;;;9.96;82.39;102352.28;5003125;28;20601;-73
2021/10/14 01:00:06;;;;;;;16.25;4.55;;;;;;;10.12;81.58;102360.59;5009945;28;20030;-74
2021/10/14 01:02:31;;;;;;;13.65;4.25;;;;;;;9.98;81.94;102347.81;5007682;28;20041;-73
2021/10/14 01:04:57;;;;;;;19.48;4.28;;;;;;;9.97;82.42;102355.72;5023602;28;20096;-75
2021/10/14 01:07:22;;;;;;;13.23;4.00;;;;;;;9.94;82.11;102346.41;5011195;28;20049;-74
2021/10/14 01:09:48;;;;;;;11.23;3.42;;;;;;;9.92;82.22;102338.72;5008138;28;20030;-74
2021/10/14 01:12:14;;;;;;;8.85;3.40;;;;;;;9.91;81.73;102337.09;5012024;28;20490;-74
2021/10/14 01:14:40;;;;;;;11.50;3.72;;;;;;;9.94;81.85;102338.63;5012394;28;20632;-73
2021/10/14 01:17:05;;;;;;;10.80;3.97;;;;;;;9.96;81.84;102338.50;5010945;28;20065;-73
2021/10/14 01:19:31;;;;;;;11.45;3.67;;;;;;;9.96;81.46;102339.34;5009663;28;20029;-74
2021/10/14 01:21:57;;;;;;;11.48;4.10;;;;;;;9.93;81.46;102335.22;5009069;28;20044;-74
2021/10/14 01:24:22;;;;;;;12.10;3.60;;;;;;;9.90;81.66;102335.44;5007698;28;20509;-74
2021/10/14 01:26:48;;;;;;;9.18;3.42;;;;;;;9.91;81.93;102336.28;5015414;28;20041;-73
2021/10/14 01:29:14;;;;;;;12.50;3.88;;;;;;;9.88;81.66;102326.13;5010033;28;20034;-74
2021/10/14 01:31:40;;;;;;;7.72;3.10;;;;;;;9.90;82.01;102321.66;5009322;28;20038;-73
2021/10/14 01:34:06;;;;;;;6.55;3.53;;;;;;;9.88;82.33;102326.94;5006383;28;20034;-75
2021/10/14 01:36:31;;;;;;;16.15;4.57;;;;;;;9.89;82.53;102320.84;5014909;28;20036;-74
2021/10/14 01:38:57;;;;;;;9.68;4.03;;;;;;;9.92;82.00;102328.38;5008768;28;20037;-74
2021/10/14 01:41:22;;;;;;;10.43;3.35;;;;;;;9.86;82.42;102321.06;5008603;28;20026;-75
2021/10/14 01:43:48;;;;;;;17.83;4.07;;;;;;;9.92;82.08;102323.19;4991493;28;20046;-74
2021/10/14 01:46:13;;;;;;;16.90;4.68;;;;;;;9.94;81.52;102317.91;5005417;28;20073;-73
2021/10/14 01:48:39;;;;;;;9.77;3.83;;;;;;;9.86;82.10;102313.28;5004461;28;20056;-74
2021/10/14 01:51:05;;;;;;;11.20;4.03;;;;;;;9.87;82.10;102309.78;5008260;28;20033;-74
2021/10/14 01:53:31;;;;;;;18.25;4.22;;;;;;;10.07;81.59;102312.63;5024272;28;20037;-73
2021/10/14 01:55:56;;;;;;;12.00;4.00;;;;;;;10.03;80.43;102318.97;5006837;28;20037;-74
2021/10/14 01:58:22;;;;;;;10.80;3.50;;;;;;;9.98;81.15;102321.09;5003795;28;20033;-75
2021/10/14 02:00:50;;;;;;;17.50;4.38;;;;;;;9.98;81.31;102319.31;5005211;28;20048;-73
2021/10/14 02:03:16;;;;;;;10.43;4.82;;;;;;;10.00;81.53;102314.88;5007315;28;20030;-73
2021/10/14 02:05:41;;;;;;;10.77;4.22;;;;;;;9.89;81.88;102325.22;5011610;28;20041;-73
2021/10/14 02:08:07;;;;;;;16.80;5.30;;;;;;;9.78;83.08;102320.81;5020615;28;20038;-74
2021/10/14 02:10:33;;;;;;;10.98;4.68;;;;;;;9.73;84.13;102315.13;5012969;28;20071;-75
2021/10/14 02:12:59;;;;;;;11.45;4.90;;;;;;;9.80;85.00;102321.53;5008794;28;20041;-77
2021/10/14 02:15:24;;;;;;;19.45;6.88;;;;;;;9.67;86.05;102323.38;5012923;28;20048;-76
2021/10/14 02:17:50;;;;;;;14.40;5.75;;;;;;;9.69;86.82;102318.91;5008673;28;20041;-77
2021/10/14 02:20:16;;;;;;;14.90;7.47;;;;;;;9.53;87.53;102314.84;5008564;28;20442;-77
2021/10/14 02:22:42;;;;;;;14.05;5.97;;;;;;;9.51;87.84;102318.47;5005742;28;20113;-76
2021/10/14 02:25:09;;;;;;;16.02;6.05;;;;;;;9.45;88.51;102305.97;5014822;28;20022;-77
2021/10/14 02:27:35;;;;;;;16.77;5.63;;;;;;;9.42;89.15;102313.97;5015887;28;20486;-77
2021/10/14 02:30:01;;;;;;;13.70;5.97;;;;;;;9.41;89.40;102309.72;5015164;28;20430;-76
2021/10/14 02:32:27;;;;;;;16.02;6.20;;;;;;;9.34;89.90;102309.34;5023649;28;20069;-77
2021/10/14 02:34:55;;;;;;;19.50;6.50;;;;;;;9.30;90.13;102306.16;4991948;28;20038;-77
2021/10/14 02:37:20;;;;;;;14.90;6.07;;;;;;;9.44;90.05;102302.56;5006606;28;20067;-75
2021/10/14 02:39:46;;;;;;;17.75;6.18;;;;;;;9.39;90.20;102309.84;5016153;28;20033;-76
2021/10/14 02:42:11;;;;;;;20.25;6.25;;;;;;;9.40;90.05;102306.31;4991174;28;20026;-76
2021/10/14 02:44:37;;;;;;;14.13;6.65;;;;;;;9.33;90.31;102305.94;5008318;28;20362;-77
2021/10/14 02:47:02;;;;;;;14.48;6.55;;;;;;;9.28;90.72;102300.25;5008730;28;20037;-76
2021/10/14 02:49:28;;;;;;;12.38;6.50;;;;;;;9.38;89.85;102305.63;4988251;28;20544;-77
2021/10/14 02:51:53;;;;;;;21.45;7.15;;;;;;;9.34;90.01;102310.19;5024540;28;20072;-77
2021/10/14 02:54:19;;;;;;;13.05;6.78;;;;;;;9.24;90.63;102308.38;5008825;28;20026;-77
2021/10/14 02:56:44;;;;;;;18.10;6.47;;;;;;;9.26;91.36;102315.06;5010696;28;20100;-77
2021/10/14 02:59:11;;;;;;;12.48;6.82;;;;;;;9.24;91.15;102300.59;5003136;28;20029;-77
2021/10/14 03:01:37;;;;;;;26.05;7.13;;;;;;;9.31;90.74;102294.06;4994723;28;20486;-77
2021/10/14 03:04:03;;;;;;;15.07;7.35;;;;;;;9.32;89.71;102298.28;5020381;28;20042;-78
2021/10/14 03:06:28;;;;;;;15.55;8.10;;;;;;;9.26;90.14;102291.78;5013534;28;20493;-78
2021/10/14 03:08:54;;;;;;;20.92;8.25;;;;;;;9.33;90.60;102302.53;4994784;28;20450;-77
2021/10/14 03:11:19;;;;;;;17.35;8.13;;;;;;;9.32;90.18;102304.28;5005342;28;20046;-77
2021/10/14 03:13:45;;;;;;;18.10;8.15;;;;;;;9.36;90.31;102310.06;4997476;28;20033;-77
2021/10/14 03:16:10;;;;;;;19.30;8.20;;;;;;;9.33;89.96;102305.94;5016004;28;20045;-78
2021/10/14 03:18:36;;;;;;;19.08;9.20;;;;;;;9.30;90.19;102305.31;5008416;28;20110;-77
2021/10/14 03:21:02;;;;;;;16.75;8.63;;;;;;;9.24;90.66;102304.00;5014648;28;20046;-77
2021/10/14 03:23:27;;;;;;;17.10;7.50;;;;;;;9.32;90.51;102298.28;5009194;28;20026;-76
2021/10/14 03:25:53;;;;;;;19.30;9.32;;;;;;;9.27;90.68;102301.22;4998124;28;20048;-76
2021/10/14 03:28:18;;;;;;;18.20;8.93;;;;;;;9.24;90.84;102303.19;5009106;28;20487;-77
2021/10/14 03:30:44;;;;;;;24.42;8.70;;;;;;;9.23;90.65;102304.09;5010263;28;20124;-77
2021/10/14 03:33:09;;;;;;;22.27;9.07;;;;;;;9.22;90.66;102305.88;5006118;28;20268;-77
2021/10/14 03:35:35;;;;;;;22.10;9.57;;;;;;;9.25;90.85;102300.50;5017651;28;20112;-78
2021/10/14 03:38:01;;;;;;;23.42;9.32;;;;;;;9.16;90.91;102311.50;5006912;28;21273;-77
2021/10/14 03:40:28;;;;;;;21.25;9.57;;;;;;;9.20;90.62;102300.00;5006395;28;20053;-77
2021/10/14 03:42:54;;;;;;;16.58;10.10;;;;;;;9.25;90.09;102303.09;5005402;28;20096;-77
2021/10/14 03:45:19;;;;;;;22.20;10.20;;;;;;;9.29;90.51;102304.50;5019943;28;20034;-77
2021/10/14 03:47:46;;;;;;;25.73;10.98;;;;;;;9.35;89.94;102298.88;5006808;28;20037;-77
2021/10/14 03:50:11;;;;;;;26.35;10.77;;;;;;;9.32;89.90;102303.44;5009670;28;20407;-77
2021/10/14 03:52:37;;;;;;;21.70;10.43;;;;;;;9.28;89.77;102300.25;5011148;28;20029;-77
2021/10/14 03:55:03;;;;;;;18.95;9.73;;;;;;;9.25;89.56;102297.91;5011640;28;20030;-76
2021/10/14 03:57:29;;;;;;;20.42;9.43;;;;;;;9.30;89.38;102297.56;5017352;28;20033;-76
2021/10/14 03:59:54;;;;;;;21.45;9.38;;;;;;;9.21;89.65;102298.22;5007324;28;20037;-77
2021/10/14 04:02:20;;;;;;;26.80;10.15;;;;;;;9.30;89.67;102297.56;5007422;28;20037;-77
2021/10/14 04:04:45;;;;;;;20.55;9.85;;;;;;;9.23;89.66;102293.75;5015766;28;20029;-75
2021/10/14 04:07:11;;;;;;;22.45;10.50;;;;;;;9.20;89.98;102287.06;5004492;28;20034;-77
2021/10/14 04:09:37;;;;;;;26.15;10.35;;;;;;;9.27;89.51;102287.44;5005142;28;20046;-77
2021/10/14 04:12:02;;;;;;;23.02;10.02;;;;;;;9.23;89.81;102283.41;5020691;28;20045;-76
2021/10/14 04:14:29;;;;;;;25.27;11.02;;;;;;;9.22;89.91;102277.41;5013648;28;20040;-78
2021/10/14 04:16:54;;;;;;;24.40;9.77;;;;;;;9.27;89.47;102277.09;5016111;28;20520;-77
2021/10/14 04:19:20;;;;;;;25.58;10.00;;;;;;;9.32;89.34;102278.41;4994560;28;20026;-77
2021/10/14 04:21:47;;;;;;;20.77;9.75;;;;;;;9.24;89.27;102277.31;5011024;28;20040;-79
2021/10/14 04:24:12;;;;;;;23.55;9.75;;;;;;;9.37;88.68;102282.41;5032645;28;20037;-76
2021/10/14 04:26:38;;;;;;;24.65;11.10;;;;;;;9.32;88.84;102287.91;5014588;28;20098;-77
2021/10/14 04:29:03;;;;;;;24.33;10.60;;;;;;;9.27;89.41;102295.22;5005590;28;20778;-76
2021/10/14 04:31:29;;;;;;;30.17;10.77;;;;;;;9.26;89.64;102293.53;5027847;28;20034;-75
2021/10/14 04:33:54;;;;;;;24.02;11.15;;;;;;;9.22;89.86;102292.94;5004264;28;20038;-75
2021/10/14 04:36:20;;;;;;;19.92;11.07;;;;;;;9.32;89.41;102293.09;5013238;28;20096;-77
2021/10/14 04:38:46;;;;;;;28.13;11.40;;;;;;;9.24;90.09;102295.44;5003173;28;20487;-75
2021/10/14 04:41:12;;;;;;;21.38;11.35;;;;;;;9.28;89.90;102286.50;5011879;28;20071;-74
2021/10/14 04:43:37;;;;;;;21.92;11.50;;;;;;;9.41;88.77;102291.59;5014374;28;20037;-74
2021/10/14 04:46:03;;;;;;;23.15;11.65;;;;;;;9.33;89.06;102287.00;5029075;28;20079;-75
2021/10/14 04:48:28;;;;;;;27.08;12.65;;;;;;;9.32;89.04;102283.59;5019516;28;20038;-77
2021/10/14 04:50:54;;;;;;;30.73;13.23;;;;;;;9.50;88.93;102288.34;5011213;28;20033;-77
2021/10/14 04:53:19;;;;;;;35.83;12.75;;;;;;;9.33;88.83;102282.63;5018357;28;20026;-76
2021/10/14 04:55:45;;;;;;;24.27;12.68;;;;;;;9.36;89.38;102281.56;5018105;28;20025;-77
2021/10/14 04:58:10;;;;;;;29.67;13.52;;;;;;;9.42;88.92;102282.88;5020784;28;20470;-76
2021/10/14 05:00:36;;;;;;;34.20;13.57;;;;;;;9.33;89.45;102281.81;4995965;28;20036;-76
2021/10/14 05:03:01;;;;;;;26.08;13.07;;;;;;;9.43;89.48;102284.56;5011912;28;20045;-78
2021/10/14 05:05:27;;;;;;;24.80;14.02;;;;;;;9.37;89.00;102278.06;5013005;28;20116;-76
2021/10/14 05:07:52;;;;;;;24.00;13.10;;;;;;;9.31;89.15;102284.50;5014487;28;20427;-77
2021/10/14 05:10:18;;;;;;;30.55;14.57;;;;;;;9.25;89.85;102289.28;5015778;28;20025;-77
2021/10/14 05:12:43;;;;;;;25.80;13.25;;;;;;;9.33;89.51;102290.41;5014432;28;20038;-75
2021/10/14 05:15:10;;;;;;;26.02;13.02;;;;;;;9.29;90.27;102280.41;5012854;28;20025;-77
2021/10/14 05:17:36;;;;;;;34.30;14.45;;;;;;;9.28;90.31;102278.72;5015626;28;20044;-77
2021/10/14 05:20:03;;;;;;;27.85;14.50;;;;;;;9.30;90.15;102282.84;5015427;28;20100;-78
2021/10/14 05:22:29;;;;;;;34.63;14.95;;;;;;;9.42;89.91;102269.94;5019307;28;20045;-77
2021/10/14 05:24:54;;;;;;;33.55;14.27;;;;;;;9.38;89.85;102277.13;4995398;28;20446;-77
2021/10/14 05:27:21;;;;;;;30.08;14.90;;;;;;;9.35;90.12;102285.13;5015718;28;20026;-76
2021/10/14 05:29:46;;;;;;;34.40;16.58;;;;;;;9.40;90.00;102283.03;5011337;28;20044;-78
2021/10/14 05:32:12;;;;;;;32.83;15.63;;;;;;;9.32;90.41;102274.97;5015895;28;20034;-78
2021/10/14 05:34:37;;;;;;;30.63;16.33;;;;;;;9.35;90.46;102280.75;5015462;28;20080;-78
2021/10/14 05:37:03;;;;;;;40.85;17.95;;;;;;;9.39;90.73;102283.13;5019014;28;20037;-78
2021/10/14 05:39:28;;;;;;;35.17;18.02;;;;;;;9.35;90.83;102274.75;5030247;28;20406;-79
2021/10/14 05:41:54;;;;;;;37.53;18.02;;;;;;;9.43;90.57;102269.84;4996920;28;20702;-79
2021/10/14 05:44:19;;;;;;;40.22;18.95;;;;;;;9.41;90.85;102279.47;5013055;28;20081;-77
2021/10/14 05:46:45;;;;;;;42.25;18.63;;;;;;;9.40;91.25;102279.59;5026197;28;20041;-78
2021/10/14 05:49:10;;;;;;;51.25;20.08;;;;;;;9.35;91.97;102282.53;5012325;28;20026;-78
2021/10/14 05:51:36;;;;;;;44.67;20.35;;;;;;;9.27;92.31;102279.69;5003104;28;20033;-77
2021/10/14 05:54:02;;;;;;;44.85;22.30;;;;;;;9.25;93.09;102284.13;5019695;28;20216;-77
2021/10/14 05:56:27;;;;;;;45.13;22.23;;;;;;;9.28;92.87;102279.53;5000708;28;20494;-76
2021/10/14 05:58:53;;;;;;;54.17;22.88;;;;;;;9.38;92.39;102289.22;5013450;28;20394;-76
2021/10/14 06:01:20;;;;;;;46.90;23.35;;;;;;;9.37;92.50;102282.41;5015761;28;20474;-76
2021/10/14 06:03:46;;;;;;;50.95;23.05;;;;;;;9.27;93.03;102277.91;5004967;28;20028;-78
2021/10/14 06:06:11;;;;;;;51.20;25.90;;;;;;;9.27;93.24;102277.09;5016971;28;20026;-75
2021/10/14 06:08:37;;;;;;;51.20;24.33;;;;;;;9.27;93.47;102283.09;5014315;28;20718;-76
2021/10/14 06:11:02;;;;;;;57.58;24.95;;;;;;;9.30;93.50;102275.09;5013758;28;20038;-75
2021/10/14 06:13:28;;;;;;;54.83;24.30;;;;;;;9.33;93.43;102276.63;5011572;28;20452;-77
2021/10/14 06:15:53;;;;;;;56.53;25.15;;;;;;;9.25;93.48;102284.97;5017808;28;20048;-75
2021/10/14 06:18:19;;;;;;;49.90;25.20;;;;;;;9.22;93.85;102282.59;5017417;28;20037;-78
2021/10/14 06:20:45;;;;;;;48.72;24.25;;;;;;;9.15;94.20;102279.63;4994268;28;20589;-76
2021/10/14 06:23:11;;;;;;;53.58;24.38;;;;;;;9.27;94.33;102282.28;5012995;28;20467;-75
2021/10/14 06:25:36;;;;;;;53.58;25.40;;;;;;;9.27;94.03;102277.09;5017745;28;20032;-75
2021/10/14 06:28:02;;;;;;;56.03;25.65;;;;;;;9.37;93.51;102277.25;5016720;28;20042;-76
2021/10/14 06:30:29;;;;;;;59.10;25.63;;;;;;;9.38;93.25;102274.56;5019410;28;20121;-76
2021/10/14 06:32:55;;;;;;;50.72;24.83;;;;;;;9.34;93.64;102266.19;5019000;28;20037;-75
2021/10/14 06:35:20;;;;;;;52.55;26.08;;;;;;;9.31;93.65;102257.81;5016428;28;20029;-76
2021/10/14 06:37:46;;;;;;;59.83;26.48;;;;;;;9.32;93.57;102259.44;5013795;28;20049;-76
2021/10/14 06:40:11;;;;;;;56.03;26.38;;;;;;;9.30;93.69;102259.53;4991815;28;20403;-76
2021/10/14 06:42:37;;;;;;;56.20;26.25;;;;;;;9.32;93.96;102251.69;5016725;28;20029;-76
2021/10/14 06:45:03;;;;;;;55.78;25.25;;;;;;;9.29;93.66;102257.09;5010652;28;20462;-77
2021/10/14 06:47:29;;;;;;;56.85;26.15;;;;;;;9.28;93.91;102263.19;4996073;28;20260;-76
2021/10/14 06:49:54;;;;;;;57.05;26.98;;;;;;;9.34;94.41;102268.78;5012157;28;20046;-76
2021/10/14 06:52:19;;;;;;;59.70;26.95;;;;;;;9.33;94.33;102264.50;5014614;28;20026;-76
2021/10/14 06:54:45;;;;;;;55.25;26.10;;;;;;;9.32;94.32;102259.44;5010349;28;20487;-77
2021/10/14 06:57:10;;;;;;;58.95;26.35;;;;;;;9.35;94.41;102269.59;4994573;28;20034;-78
2021/10/14 06:59:36;;;;;;;58.10;25.77;;;;;;;9.30;94.42;102271.69;5010949;28;20061;-77
2021/10/14 07:02:02;;;;;;;63.60;25.83;;;;;;;9.43;94.27;102262.06;5012814;28;20447;-76
2021/10/14 07:04:27;;;;;;;54.88;24.88;;;;;;;9.45;93.85;102257.59;5010913;28;20041;-76
2021/10/14 07:06:53;;;;;;;53.28;24.95;;;;;;;9.47;93.60;102265.25;5006909;28;20038;-77
2021/10/14 07:09:18;;;;;;;55.80;24.42;;;;;;;9.40;94.27;102258.88;5013038;28;20041;-77
2021/10/14 07:11:51;;;;;;;52.45;22.92;;;;;;;9.36;94.70;102260.88;5011389;28;20057;-77
2021/10/14 07:14:17;;;;;;;55.60;26.55;;;;;;;9.39;95.09;102257.25;5018726;28;20041;-77
2021/10/14 07:16:43;;;;;;;52.20;24.02;;;;;;;9.31;95.14;102250.84;5005384;28;20025;-75
2021/10/14 07:19:08;;;;;;;61.50;27.55;;;;;;;9.52;94.39;102265.75;5005879;28;20026;-75
2021/10/14 07:21:34;;;;;;;49.47;23.50;;;;;;;9.51;94.16;102264.94;5010305;28;20084;-77
2021/10/14 07:23:59;;;;;;;55.40;23.88;;;;;;;9.58;94.09;102262.69;5006184;28;20022;-75
2021/10/14 07:26:25;;;;;;;51.55;24.00;;;;;;;9.48;93.75;102259.97;5008538;28;20037;-77
2021/10/14 07:28:51;;;;;;;55.15;24.27;;;;;;;9.47;94.36;102263.50;5010083;28;20046;-76
2021/10/14 07:31:17;;;;;;;52.35;24.85;;;;;;;9.62;94.29;102264.13;5008368;28;20037;-78
2021/10/14 07:33:43;;;;;;;54.10;22.17;;;;;;;9.55;94.08;102263.78;5010469;28;20038;-76
2021/10/14 07:36:09;;;;;;;50.45;23.08;;;;;;;9.67;93.93;102266.38;5004409;28;20091;-76
2021/10/14 07:38:34;;;;;;;64.65;27.20;;;;;;;9.63;93.98;102270.97;4990053;28;20053;-76
2021/10/14 07:41:00;;;;;;;71.20;30.83;;;;;;;9.55;94.12;102271.53;5006949;28;20494;-76
2021/10/14 07:43:25;;;;;;;51.30;23.58;;;;;;;9.57;94.48;102274.03;4989508;28;20033;-75
2021/10/14 07:45:51;;;;;;;51.58;21.30;;;;;;;9.69;94.13;102275.69;5007410;28;20034;-76
2021/10/14 07:48:16;;;;;;;47.30;22.40;;;;;;;9.62;94.29;102271.06;5008027;28;20465;-76
2021/10/14 07:50:43;;;;;;;55.83;22.40;;;;;;;9.77;93.83;102277.69;4995169;28;20079;-75
2021/10/14 07:53:13;;;;;;;52.60;20.95;;;;;;;9.72;93.70;102272.88;4985355;28;20390;-76
2021/10/14 07:55:38;;;;;;;56.03;27.13;;;;;;;9.78;93.97;102266.41;5016714;28;20037;-75
2021/10/14 07:58:04;;;;;;;57.13;27.77;;;;;;;9.85;93.74;102275.38;5005230;28;20084;-76
2021/10/14 08:00:29;;;;;;;49.95;23.67;;;;;;;9.86;93.44;102283.97;5012884;28;20021;-75
2021/10/14 08:02:55;;;;;;;52.65;24.35;;;;;;;9.87;93.72;102283.00;5013036;28;20135;-76
2021/10/14 08:05:20;;;;;;;47.53;22.40;;;;;;;9.80;93.38;102292.22;5010047;28;20032;-76
2021/10/14 08:07:46;;;;;;;45.60;22.23;;;;;;;9.83;93.07;102291.97;5009466;28;20533;-76
2021/10/14 08:10:11;;;;;;;57.10;23.75;;;;;;;9.89;93.66;102287.16;5009091;28;20422;-76
2021/10/14 08:12:37;;;;;;;47.55;20.73;;;;;;;9.92;93.41;102292.09;5005491;28;20041;-76
2021/10/14 08:15:03;;;;;;;45.38;21.48;;;;;;;9.88;93.49;102288.09;5026011;28;20034;-77
2021/10/14 08:17:29;;;;;;;45.38;20.85;;;;;;;9.86;93.83;102291.75;5019623;28;20087;-75
2021/10/14 08:19:54;;;;;;;43.25;20.25;;;;;;;9.93;93.42;102285.16;5015036;28;20104;-77
2021/10/14 08:22:20;;;;;;;51.97;22.13;;;;;;;9.94;92.88;102291.97;5022442;28;20532;-76
2021/10/14 08:24:46;;;;;;;43.15;21.40;;;;;;;9.86;93.23;102294.34;5016518;28;20038;-76
2021/10/14 08:27:12;;;;;;;43.28;21.27;;;;;;;9.85;93.37;102293.50;5017514;28;20041;-77
2021/10/14 08:29:37;;;;;;;44.15;21.73;;;;;;;9.95;93.00;102293.66;5014610;28;20041;-76
2021/10/14 08:32:03;;;;;;;44.58;21.58;;;;;;;9.92;93.10;102291.28;5012178;28;20099;-77
2021/10/14 08:34:29;;;;;;;50.45;24.70;;;;;;;9.95;92.84;102291.06;5015696;28;20029;-77
2021/10/14 08:36:56;;;;;;;51.08;23.88;;;;;;;9.95;93.10;102285.88;5015098;28;20044;-77
2021/10/14 08:39:21;;;;;;;42.83;21.83;;;;;;;10.06;93.14;102290.25;4998157;28;20030;-77
2021/10/14 08:41:47;;;;;;;56.03;28.77;;;;;;;10.04;93.17;102282.59;5010010;28;20509;-77
2021/10/14 08:44:24;;;;;;;50.83;24.10;;;;;;;10.01;92.70;102290.59;5017992;28;20060;-77
2021/10/14 08:46:50;;;;;;;73.55;34.40;;;;;;;10.12;92.43;102280.22;5022279;28;20052;-77
2021/10/14 08:49:16;;;;;;;73.60;34.28;;;;;;;10.18;92.42;102286.72;5015447;28;20041;-77
2021/10/14 08:51:43;;;;;;;61.08;29.50;;;;;;;10.17;92.59;102289.41;5018059;28;20300;-77
2021/10/14 08:54:08;;;;;;;60.20;29.30;;;;;;;10.31;92.19;102284.03;5022070;28;20029;-77
2021/10/14 08:56:34;;;;;;;49.65;25.80;;;;;;;10.41;91.46;102276.38;5021532;28;20033;-76
2021/10/14 08:59:00;;;;;;;46.88;22.27;;;;;;;10.41;91.60;102278.97;5016711;28;20102;-77
2021/10/14 09:01:25;;;;;;;47.22;22.38;;;;;;;10.38;91.22;102281.78;5001754;28;20048;-76
2021/10/14 09:03:53;;;;;;;45.63;22.70;;;;;;;10.35;91.38;102282.03;5014026;28;20084;-77
2021/10/14 09:06:19;;;;;;;54.97;27.88;;;;;;;10.41;91.72;102278.97;5008547;28;20021;-77
2021/10/14 09:08:50;;;;;;;41.53;19.27;;;;;;;10.55;90.88;102278.72;5005278;28;20045;-76
2021/10/14 09:11:23;;;;;;;43.20;21.73;;;;;;;10.54;90.89;102274.47;5017194;28;20035;-76
2021/10/14 09:13:54;;;;;;;57.95;31.83;;;;;;;10.59;90.76;102274.13;5011730;28;20042;-76
2021/10/14 09:16:25;;;;;;;47.28;22.25;;;;;;;10.60;90.56;102278.34;5009945;28;20044;-76
2021/10/14 09:18:52;;;;;;;43.97;21.92;;;;;;;10.55;90.36;102273.53;4996318;28;20030;-75
2021/10/14 09:21:29;;;;;;;43.33;22.50;;;;;;;10.55;91.26;102278.72;4995394;28;20053;-76
2021/10/14 09:23:58;;;;;;;40.63;23.00;;;;;;;10.61;91.07;102273.06;5014448;28;20089;-77
2021/10/14 09:26:35;;;;;;;42.92;20.30;;;;;;;10.56;91.17;102271.75;5007612;28;20026;-74
2021/10/14 09:29:08;;;;;;;43.55;22.75;;;;;;;10.65;90.48;102269.28;5010740;28;20038;-75
2021/10/14 09:31:51;;;;;;;39.55;18.90;;;;;;;10.63;89.99;102271.16;5006000;28;20030;-76
2021/10/14 09:34:34;;;;;;;45.45;21.02;;;;;;;10.55;90.65;102270.09;5011227;28;20040;-76
2021/10/14 09:37:03;;;;;;;42.65;20.48;;;;;;;10.58;90.91;102262.91;5027121;28;20472;-76
2021/10/14 09:39:29;;;;;;;34.42;17.15;;;;;;;10.76;90.35;102268.44;5006946;28;20475;-76
2021/10/14 09:41:55;;;;;;;38.92;19.15;;;;;;;10.90;89.25;102272.50;4990820;28;20156;-76
2021/10/14 09:44:21;;;;;;;29.40;16.63;;;;;;;10.82;89.19;102270.53;4994710;28;20394;-74
2021/10/14 09:46:52;;;;;;;43.17;19.15;;;;;;;10.92;89.07;102268.03;5013353;28;20025;-74
2021/10/14 09:49:32;;;;;;;34.85;17.67;;;;;;;10.81;89.33;102270.66;5007911;28;20042;-76
2021/10/14 09:52:02;;;;;;;35.13;16.38;;;;;;;10.82;89.09;102259.34;5023966;28;20045;-75
2021/10/14 09:54:30;;;;;;;29.90;15.23;;;;;;;10.79;89.67;102262.16;5007846;28;20482;-76
2021/10/14 09:56:56;;;;;;;34.22;15.98;;;;;;;10.83;88.95;102258.38;5006623;28;20038;-75
2021/10/14 09:59:22;;;;;;;37.10;15.38;;;;;;;10.78;89.13;102266.53;5006878;28;20044;-75
2021/10/14 10:01:52;;;;;;;35.80;17.77;;;;;;;10.81;89.48;102262.88;5015223;28;20066;-75
2021/10/14 10:04:25;;;;;;;31.25;15.60;;;;;;;10.90;89.16;102257.75;5009719;28;20109;-76
2021/10/14 10:06:53;;;;;;;33.40;15.15;;;;;;;10.89;88.71;102256.13;5009147;28;20034;-74
2021/10/14 10:09:21;;;;;;;29.52;13.52;;;;;;;11.00;88.61;102257.88;5009002;28;20406;-76
2021/10/14 10:11:50;;;;;;;29.85;14.57;;;;;;;10.97;88.76;102259.88;5017791;28;20033;-75
2021/10/14 10:14:19;;;;;;;28.92;13.57;;;;;;;10.97;88.59;102258.09;5006793;28;20030;-75
2021/10/14 10:17:06;;;;;;;31.40;13.38;;;;;;;11.00;88.73;102257.03;5030410;28;20116;-76
2021/10/14 10:19:46;;;;;;;32.08;14.20;;;;;;;10.97;88.18;102258.09;5016183;28;20033;-74
2021/10/14 10:22:35;;;;;;;30.35;12.68;;;;;;;11.16;88.24;102254.84;5009482;28;20034;-75
2021/10/14 10:25:25;;;;;;;30.50;15.43;;;;;;;11.20;88.18;102251.06;5008038;28;20053;-75
2021/10/14 10:27:51;;;;;;;32.55;15.15;;;;;;;11.15;88.27;102248.03;5029318;28;20441;-75
2021/10/14 10:30:27;;;;;;;25.13;12.10;;;;;;;11.24;87.88;102251.63;4997782;28;20022;-76
2021/10/14 10:32:53;;;;;;;28.15;14.25;;;;;;;11.18;88.47;102255.53;5013187;28;20141;-76
2021/10/14 10:35:48;;;;;;;29.80;13.75;;;;;;;11.30;87.11;102251.13;5016287;28;20037;-74
2021/10/14 10:38:23;;;;;;;30.25;13.52;;;;;;;11.28;87.75;102250.44;5006356;28;20269;-76
2021/10/14 10:40:51;;;;;;;26.67;13.40;;;;;;;11.34;87.96;102244.75;5017587;28;20049;-76
2021/10/14 10:43:17;;;;;;;28.88;13.98;;;;;;;11.35;88.55;102242.97;5009648;28;20041;-75
2021/10/14 10:45:45;;;;;;;25.30;12.38;;;;;;;11.29;88.94;102245.09;5013051;28;20041;-75
2021/10/14 10:48:12;;;;;;;28.92;13.93;;;;;;;11.40;88.37;102235.63;4983222;28;20053;-75
2021/10/14 10:50:40;;;;;;;25.20;12.63;;;;;;;11.54;87.30;102237.91;5008175;28;20125;-75
2021/10/14 10:53:08;;;;;;;28.63;13.48;;;;;;;11.58;87.85;102238.47;5006811;28;20136;-75
2021/10/14 10:55:38;;;;;;;23.17;12.55;;;;;;;11.76;87.71;102236.13;5026826;28;20034;-76
2021/10/14 10:58:07;;;;;;;26.40;12.93;;;;;;;11.72;87.75;102238.16;5005288;28;20038;-76
2021/10/14 11:00:34;;;;;;;25.75;12.82;;;;;;;11.65;88.04;102231.81;5013598;28;20026;-75
2021/10/14 11:03:24;;;;;;;26.88;13.80;;;;;;;11.73;87.07;102224.19;5007487;28;20038;-75
2021/10/14 11:05:53;;;;;;;27.13;12.73;;;;;;;11.74;87.58;102219.84;4986088;28;20124;-75
2021/10/14 11:08:33;;;;;;;31.80;13.55;;;;;;;11.88;87.26;102215.13;5010404;28;20041;-75
2021/10/14 11:11:13;;;;;;;23.38;12.88;;;;;;;11.92;86.29;102204.47;5016357;28;20422;-75
2021/10/14 11:13:42;;;;;;;26.33;13.65;;;;;;;12.14;85.85;102208.69;5007935;28;20030;-78
2021/10/14 11:16:12;;;;;;;28.67;13.95;;;;;;;12.23;85.90;102207.88;5010140;28;20595;-75